createdAt,value
2018-10-07T00:00:45.741Z,100.00
2018-10-07T00:03:15.153Z,100.00
2018-10-07T00:05:44.603Z,100.00
2018-10-07T00:08:14.002Z,100.00
2018-10-07T00:10:43.441Z,100.00
2018-10-07T00:13:12.798Z,100.00
2018-10-07T00:15:42.205Z,100.00
2018-10-07T00:18:11.613Z,100.00
2018-10-07T00:20:41.048Z,100.00
2018-10-07T00:23:10.455Z,100.00
2018-10-07T00:25:39.887Z,100.00
2018-10-07T00:28:09.257Z,100.00
2018-10-07T00:30:38.635Z,100.00
2018-10-07T00:33:08.205Z,100.00
2018-10-07T00:35:37.655Z,100.00
2018-10-07T00:38:07.142Z,100.00
2018-10-07T00:40:36.493Z,100.00
2018-10-07T00:43:05.985Z,100.00
2018-10-07T00:45:35.350Z,100.00
2018-10-07T00:48:04.898Z,100.00
2018-10-07T00:50:34.261Z,100.00
2018-10-07T00:53:03.679Z,100.00
2018-10-07T00:55:33.052Z,100.00
2018-10-07T00:58:02.498Z,100.00
2018-10-07T01:00:31.862Z,100.00
2018-10-07T01:03:01.268Z,100.00
2018-10-07T01:05:30.703Z,100.00
2018-10-07T01:08:00.097Z,100.00
2018-10-07T01:10:29.510Z,100.00
2018-10-07T01:12:58.907Z,100.00
2018-10-07T01:15:28.313Z,100.00
2018-10-07T01:17:57.745Z,100.00
2018-10-07T01:20:27.866Z,100.00
2018-10-07T01:22:57.276Z,100.00
2018-10-07T01:25:26.703Z,100.00
2018-10-07T01:27:56.147Z,100.00
2018-10-07T01:30:25.567Z,100.00
2018-10-07T01:32:55.893Z,100.00
2018-10-07T01:35:25.713Z,100.00
2018-10-07T01:37:55.130Z,100.00
2018-10-07T01:40:24.544Z,100.00
2018-10-07T01:42:54.029Z,100.00
2018-10-07T01:45:23.434Z,100.00
2018-10-07T01:47:52.981Z,100.00
2018-10-07T01:50:22.372Z,100.00
2018-10-07T01:52:51.818Z,100.00
2018-10-07T01:55:21.234Z,100.00
2018-10-07T01:57:50.712Z,100.00
2018-10-07T02:00:20.088Z,100.00
2018-10-07T02:02:49.494Z,100.00
2018-10-07T02:05:18.910Z,100.00
2018-10-07T02:07:48.350Z,100.00
2018-10-07T02:10:17.760Z,100.00
2018-10-07T02:12:47.260Z,100.00
2018-10-07T02:15:16.686Z,100.00
2018-10-07T02:17:46.183Z,100.00
2018-10-07T02:20:15.594Z,100.00
2018-10-07T02:22:45.059Z,100.00
2018-10-07T02:25:14.458Z,100.00
2018-10-07T02:27:43.933Z,100.00
2018-10-07T02:30:13.336Z,100.00
2018-10-07T02:32:42.973Z,100.00
2018-10-07T02:35:12.330Z,100.00
2018-10-07T02:37:41.746Z,100.00
2018-10-07T02:40:11.169Z,100.00
2018-10-07T02:42:40.558Z,100.00
2018-10-07T02:45:09.952Z,100.00
2018-10-07T02:47:39.323Z,100.00
2018-10-07T02:50:20.314Z,100.00
2018-10-07T02:52:52.103Z,100.00
2018-10-07T02:55:30.691Z,100.00
2018-10-07T02:58:01.846Z,100.00
2018-10-07T03:00:31.253Z,100.00
2018-10-07T03:03:00.661Z,100.00
2018-10-07T03:05:30.068Z,100.00
2018-10-07T03:07:59.460Z,100.00
2018-10-07T03:10:28.899Z,100.00
2018-10-07T03:12:58.368Z,100.00
2018-10-07T03:15:27.889Z,100.00
2018-10-07T03:17:57.290Z,100.00
2018-10-07T03:20:26.726Z,100.00
2018-10-07T03:22:56.131Z,100.00
2018-10-07T03:25:25.626Z,100.00
2018-10-07T03:27:55.018Z,100.00
2018-10-07T03:30:24.524Z,100.00
2018-10-07T03:32:53.931Z,100.00
2018-10-07T03:35:23.435Z,100.00
2018-10-07T03:37:53.049Z,100.00
2018-10-07T03:40:22.463Z,100.00
2018-10-07T03:42:51.951Z,100.00
2018-10-07T03:45:21.391Z,100.00
2018-10-07T03:47:50.866Z,100.00
2018-10-07T03:50:20.267Z,100.00
2018-10-07T03:52:49.768Z,100.00
2018-10-07T03:55:19.187Z,100.00
2018-10-07T03:57:48.686Z,100.00
2018-10-07T04:00:18.088Z,100.00
2018-10-07T04:02:47.579Z,100.00
2018-10-07T04:05:17.099Z,100.00
2018-10-07T04:07:46.571Z,100.00
2018-10-07T04:10:15.935Z,100.00
2018-10-07T04:12:45.383Z,100.00
2018-10-07T04:15:14.758Z,100.00
2018-10-07T04:17:44.176Z,100.00
2018-10-07T04:20:13.533Z,100.00
2018-10-07T04:22:42.960Z,100.00
2018-10-07T04:25:12.315Z,100.00
2018-10-07T04:27:41.778Z,100.00
2018-10-07T04:30:11.145Z,100.00
2018-10-07T04:32:40.594Z,100.00
2018-10-07T04:35:09.975Z,100.00
2018-10-07T04:37:39.405Z,100.00
2018-10-07T04:40:08.766Z,100.00
2018-10-07T04:42:38.189Z,100.00
2018-10-07T04:45:07.559Z,100.00
2018-10-07T04:47:37.003Z,100.00
2018-10-07T04:50:06.807Z,100.00
2018-10-07T04:52:36.345Z,100.00
2018-10-07T04:55:05.823Z,100.00
2018-10-07T04:57:35.221Z,100.00
2018-10-07T05:00:04.905Z,100.00
2018-10-07T05:02:34.345Z,100.00
2018-10-07T05:05:03.719Z,100.00
2018-10-07T05:07:33.258Z,100.00
2018-10-07T05:10:51.654Z,100.00
2018-10-07T05:13:30.046Z,100.00
2018-10-07T05:16:02.606Z,100.00
2018-10-07T05:18:32.430Z,100.00
2018-10-07T05:21:01.936Z,100.00
2018-10-07T05:23:31.313Z,100.00
2018-10-07T05:26:00.749Z,100.00
2018-10-07T05:28:30.246Z,100.00
2018-10-07T05:30:59.650Z,100.00
2018-10-07T05:33:29.235Z,100.00
2018-10-07T05:35:58.618Z,100.00
2018-10-07T05:38:28.011Z,100.00
2018-10-07T05:40:57.540Z,100.00
2018-10-07T05:43:27.094Z,100.00
2018-10-07T05:45:56.489Z,100.00
2018-10-07T05:48:25.953Z,100.00
2018-10-07T05:50:55.366Z,100.00
2018-10-07T05:53:24.861Z,100.00
2018-10-07T05:55:54.290Z,100.00
2018-10-07T05:58:23.786Z,100.00
2018-10-07T06:00:55.747Z,100.00
2018-10-07T06:03:38.764Z,100.00
2018-10-07T06:06:08.763Z,100.00
2018-10-07T06:08:40.313Z,100.00
2018-10-07T06:11:09.707Z,100.00
2018-10-07T06:13:39.098Z,100.00
2018-10-07T06:16:08.607Z,100.00
2018-10-07T06:18:38.020Z,100.00
2018-10-07T06:21:07.420Z,100.00
2018-10-07T06:23:36.809Z,100.00
2018-10-07T06:26:06.178Z,100.00
2018-10-07T06:28:35.620Z,100.00
2018-10-07T06:31:05.053Z,100.00
2018-10-07T06:33:34.537Z,100.00
2018-10-07T06:36:03.886Z,100.00
2018-10-07T06:38:33.233Z,100.00
2018-10-07T06:41:02.596Z,100.00
2018-10-07T06:43:32.031Z,100.00
2018-10-07T06:46:01.395Z,100.00
2018-10-07T06:48:30.838Z,100.00
2018-10-07T06:51:00.211Z,100.00
2018-10-07T06:53:29.643Z,100.00
2018-10-07T06:55:58.985Z,100.00
2018-10-07T06:58:28.449Z,100.00
2018-10-07T07:00:57.801Z,100.00
2018-10-07T07:03:27.251Z,100.00
2018-10-07T07:05:56.650Z,100.00
2018-10-07T07:08:26.085Z,100.00
2018-10-07T07:10:55.503Z,100.00
2018-10-07T07:13:24.993Z,100.00
2018-10-07T07:15:54.414Z,100.00
2018-10-07T07:18:23.905Z,100.00
2018-10-07T07:20:53.286Z,100.00
2018-10-07T07:23:22.725Z,100.00
2018-10-07T07:25:52.105Z,100.00
2018-10-07T07:28:21.744Z,100.00
2018-10-07T07:30:51.143Z,100.00
2018-10-07T07:33:20.650Z,100.00
2018-10-07T07:35:50.048Z,100.00
2018-10-07T07:38:19.534Z,100.00
2018-10-07T07:40:48.941Z,100.00
2018-10-07T07:43:18.447Z,100.00
2018-10-07T07:45:47.882Z,100.00
2018-10-07T07:48:17.497Z,100.00
2018-10-07T07:50:46.862Z,100.00
2018-10-07T07:53:16.371Z,100.00
2018-10-07T07:55:45.774Z,100.00
2018-10-07T07:58:15.249Z,100.00
2018-10-07T08:00:44.645Z,100.00
2018-10-07T08:03:14.076Z,100.00
2018-10-07T08:05:43.450Z,100.00
2018-10-07T08:08:12.854Z,100.00
2018-10-07T08:10:42.248Z,100.00
2018-10-07T08:13:11.667Z,100.00
2018-10-07T08:15:41.054Z,100.00
2018-10-07T08:18:10.422Z,100.00
2018-10-07T08:20:39.807Z,100.00
2018-10-07T08:23:09.286Z,100.00
2018-10-07T08:25:38.686Z,100.00
2018-10-07T08:28:08.760Z,100.00
2018-10-07T08:30:38.175Z,100.00
2018-10-07T08:33:07.708Z,100.00
2018-10-07T08:35:37.084Z,100.00
2018-10-07T08:38:06.489Z,100.00
2018-10-07T08:40:35.876Z,100.00
2018-10-07T08:43:05.278Z,100.00
2018-10-07T08:45:34.659Z,100.00
2018-10-07T08:48:04.042Z,100.00
2018-10-07T08:50:33.390Z,100.00
2018-10-07T08:53:02.817Z,100.00
2018-10-07T08:55:32.226Z,100.00
2018-10-07T08:58:01.762Z,100.00
2018-10-07T09:00:31.138Z,100.00
2018-10-07T09:03:00.647Z,100.00
2018-10-07T09:05:30.014Z,100.00
2018-10-07T09:07:59.431Z,100.00
2018-10-07T09:10:28.818Z,100.00
2018-10-07T09:12:58.239Z,100.00
2018-10-07T09:15:27.607Z,100.00
2018-10-07T09:17:57.050Z,100.00
2018-10-07T09:20:26.423Z,100.00
2018-10-07T09:22:55.827Z,100.00
2018-10-07T09:25:25.201Z,100.00
2018-10-07T09:27:57.254Z,100.00
2018-10-07T09:30:26.747Z,100.00
2018-10-07T09:32:56.312Z,100.00
2018-10-07T09:35:25.644Z,100.00
2018-10-07T09:37:55.151Z,100.00
2018-10-07T09:40:24.524Z,100.00
2018-10-07T09:42:53.906Z,100.00
2018-10-07T09:45:23.261Z,100.00
2018-10-07T09:47:52.774Z,100.00
2018-10-07T09:50:22.298Z,100.00
2018-10-07T09:52:51.783Z,100.00
2018-10-07T09:55:21.153Z,100.00
2018-10-07T09:57:50.556Z,100.00
2018-10-07T10:00:25.109Z,100.00
2018-10-07T10:02:54.475Z,100.00
2018-10-07T10:05:23.862Z,100.00
2018-10-07T10:07:53.298Z,100.00
2018-10-07T10:10:22.919Z,100.00
2018-10-07T10:12:52.287Z,100.00
2018-10-07T10:15:21.689Z,100.00
2018-10-07T10:17:57.278Z,100.00
2018-10-07T10:20:31.325Z,100.00
2018-10-07T10:23:18.119Z,100.00
2018-10-07T10:26:16.749Z,100.00
2018-10-07T10:29:14.858Z,100.00
2018-10-07T10:34:07.531Z,100.00
2018-10-07T10:36:50.020Z,100.00
2018-10-07T10:39:29.397Z,100.00
2018-10-07T10:42:05.137Z,100.00
2018-10-07T10:44:56.797Z,100.00
2018-10-07T10:47:38.573Z,100.00
2018-10-07T10:50:44.379Z,100.00
2018-10-07T10:53:24.772Z,100.00
2018-10-07T10:56:20.424Z,100.00
2018-10-07T11:01:06.613Z,100.00
2018-10-07T11:04:45.908Z,100.00
2018-10-07T11:07:25.360Z,100.00
2018-10-07T11:11:22.018Z,100.00
2018-10-07T11:13:59.054Z,100.00
2018-10-07T11:16:51.210Z,100.00
2018-10-07T11:20:43.587Z,100.00
2018-10-07T11:23:30.052Z,100.00
2018-10-07T11:27:10.451Z,100.00
2018-10-07T11:30:53.817Z,100.00
2018-10-07T11:35:36.866Z,100.00
2018-10-07T11:38:23.789Z,100.00
2018-10-07T11:42:02.421Z,100.00
2018-10-07T11:45:17.751Z,100.00
2018-10-07T11:47:58.471Z,100.00
2018-10-07T11:52:59.028Z,100.00
2018-10-07T11:55:28.359Z,100.00
2018-10-07T11:57:58.854Z,100.00
2018-10-07T12:00:28.281Z,100.00
2018-10-07T12:02:57.805Z,100.00
2018-10-07T12:05:27.228Z,100.00
2018-10-07T12:07:56.742Z,100.00
2018-10-07T12:10:26.273Z,100.00
2018-10-07T12:12:55.714Z,100.00
2018-10-07T12:15:25.166Z,100.00
2018-10-07T12:17:54.573Z,100.00
2018-10-07T12:20:23.962Z,100.00
2018-10-07T12:22:54.302Z,100.00
2018-10-07T12:25:23.807Z,100.00
2018-10-07T12:27:53.210Z,100.00
2018-10-07T12:30:22.599Z,100.00
2018-10-07T12:32:52.042Z,100.00
2018-10-07T12:35:21.518Z,100.00
2018-10-07T12:37:50.960Z,100.00
2018-10-07T12:40:20.347Z,100.00
2018-10-07T12:42:49.819Z,100.00
2018-10-07T12:45:19.225Z,100.00
2018-10-07T12:54:56.955Z,86.67
2018-10-07T12:57:26.371Z,93.15
2018-10-07T12:59:55.794Z,87.59
2018-10-07T13:02:25.202Z,88.21
2018-10-07T13:04:54.701Z,82.99
2018-10-07T13:07:24.078Z,83.80
2018-10-07T13:09:53.458Z,97.40
2018-10-07T13:12:22.898Z,100.00
2018-10-07T13:14:52.238Z,100.00
2018-10-07T13:17:21.687Z,100.00
2018-10-07T13:19:51.039Z,94.73
2018-10-07T13:22:20.517Z,85.34
2018-10-07T13:24:49.895Z,84.08
2018-10-07T13:27:19.284Z,83.22
2018-10-07T13:29:48.703Z,85.16
2018-10-07T13:32:18.046Z,84.97
2018-10-07T13:34:47.395Z,82.43
2018-10-07T13:37:16.810Z,79.66
2018-10-07T13:39:46.188Z,78.68
2018-10-07T13:42:15.619Z,84.56
2018-10-07T13:44:44.986Z,79.52
2018-10-07T13:47:14.418Z,85.00
2018-10-07T13:49:43.794Z,100.00
2018-10-07T13:52:13.229Z,100.00
2018-10-07T13:54:42.670Z,100.00
2018-10-07T13:57:12.018Z,100.00
2018-10-07T13:59:41.413Z,100.00
2018-10-07T14:02:10.868Z,100.00
2018-10-07T14:04:40.362Z,100.00
2018-10-07T14:07:09.802Z,100.00
2018-10-07T14:09:39.275Z,100.00
2018-10-07T14:12:08.667Z,100.00
2018-10-07T14:14:38.143Z,100.00
2018-10-07T14:17:07.673Z,100.00
2018-10-07T14:19:37.074Z,100.00
2018-10-07T14:22:06.549Z,100.00
2018-10-07T14:24:35.947Z,100.00
2018-10-07T14:27:05.379Z,100.00
2018-10-07T14:29:34.802Z,100.00
2018-10-07T14:32:04.171Z,100.00
2018-10-07T14:34:33.629Z,100.00
2018-10-07T14:37:03.081Z,99.22
2018-10-07T14:39:32.450Z,100.00
2018-10-07T14:42:01.901Z,100.00
2018-10-07T14:44:31.338Z,100.00
2018-10-07T14:47:00.833Z,100.00
2018-10-07T14:49:30.273Z,100.00
2018-10-07T14:51:59.718Z,96.96
2018-10-07T14:54:29.131Z,92.73
2018-10-07T14:56:58.557Z,100.00
2018-10-07T14:59:27.939Z,97.82
2018-10-07T15:01:57.343Z,100.00
2018-10-07T15:04:26.872Z,100.00
2018-10-07T15:06:56.342Z,100.00
2018-10-07T15:09:25.855Z,100.00
2018-10-07T15:11:55.262Z,100.00
2018-10-07T15:14:24.653Z,100.00
2018-10-07T15:16:54.082Z,100.00
2018-10-07T15:19:23.473Z,100.00
2018-10-07T15:21:52.973Z,100.00
2018-10-07T15:24:22.370Z,100.00
2018-10-07T15:26:51.785Z,100.00
2018-10-07T15:29:21.254Z,100.00
2018-10-07T15:31:50.685Z,100.00
2018-10-07T15:34:20.225Z,100.00
2018-10-07T15:36:49.728Z,100.00
2018-10-07T15:39:19.151Z,100.00
2018-10-07T15:41:48.641Z,100.00
2018-10-07T15:44:18.047Z,100.00
2018-10-07T15:46:47.533Z,100.00
2018-10-07T15:49:16.921Z,100.00
2018-10-07T15:51:46.417Z,100.00
2018-10-07T15:54:15.819Z,100.00
2018-10-07T15:56:45.285Z,100.00
2018-10-07T15:59:14.627Z,100.00
2018-10-07T16:01:44.037Z,100.00
2018-10-07T16:04:13.425Z,100.00
2018-10-07T16:07:08.262Z,100.00
2018-10-07T16:09:37.678Z,100.00
2018-10-07T16:12:07.301Z,100.00
2018-10-07T16:14:36.861Z,100.00
2018-10-07T16:17:06.477Z,100.00
2018-10-07T16:19:35.844Z,100.00
2018-10-07T16:22:05.357Z,100.00
2018-10-07T16:24:34.727Z,100.00
2018-10-07T16:27:04.157Z,100.00
2018-10-07T16:29:33.533Z,100.00
2018-10-07T16:32:02.980Z,100.00
2018-10-07T16:40:43.574Z,100.00
2018-10-07T16:43:13.197Z,100.00
2018-10-07T16:45:42.836Z,100.00
2018-10-07T16:48:12.530Z,100.00
2018-10-07T16:50:42.199Z,100.00
2018-10-07T16:53:11.800Z,100.00
2018-10-07T16:55:41.908Z,100.00
2018-10-07T16:58:11.506Z,100.00
2018-10-07T17:00:41.244Z,100.00
2018-10-07T17:03:10.850Z,100.00
2018-10-07T17:05:40.568Z,100.00
2018-10-07T17:08:10.170Z,100.00
2018-10-07T17:10:39.881Z,100.00
2018-10-07T17:13:09.480Z,100.00
2018-10-07T17:15:39.323Z,100.00
2018-10-07T17:18:09.204Z,100.00
2018-10-07T17:20:38.809Z,100.00
2018-10-07T17:23:08.489Z,100.00
2018-10-07T17:25:38.236Z,100.00
2018-10-07T17:28:07.827Z,100.00
2018-10-07T17:30:37.561Z,100.00
2018-10-07T17:33:07.287Z,100.00
2018-10-07T17:35:36.890Z,100.00
2018-10-07T17:38:06.886Z,100.00
2018-10-07T17:40:37.042Z,100.00
2018-10-07T17:43:07.563Z,100.00
2018-10-07T17:45:37.119Z,100.00
2018-10-07T17:48:06.911Z,100.00
2018-10-07T17:50:36.986Z,100.00
2018-10-07T17:53:06.793Z,100.00
2018-10-07T17:55:36.406Z,100.00
2018-10-07T17:58:06.229Z,100.00
2018-10-07T18:00:35.856Z,100.00
2018-10-07T18:03:05.673Z,100.00
2018-10-07T18:05:35.301Z,100.00
2018-10-07T18:08:06.075Z,100.00
2018-10-07T18:10:35.663Z,100.00
2018-10-07T18:13:05.404Z,100.00
2018-10-07T18:15:35.008Z,100.00
2018-10-07T18:18:04.835Z,100.00
2018-10-07T18:20:34.443Z,100.00
2018-10-07T18:23:04.226Z,100.00
2018-10-07T18:25:33.844Z,100.00
2018-10-07T18:28:03.731Z,100.00
2018-10-07T18:30:33.360Z,100.00
2018-10-07T18:33:03.454Z,100.00
2018-10-07T18:35:33.087Z,100.00
2018-10-07T18:38:02.884Z,100.00
2018-10-07T18:40:32.492Z,100.00
2018-10-07T18:43:02.239Z,100.00
2018-10-07T18:45:31.944Z,100.00
2018-10-07T18:48:01.725Z,100.00
2018-10-07T18:50:31.311Z,100.00
2018-10-07T18:53:01.244Z,100.00
2018-10-07T18:55:30.969Z,100.00
2018-10-07T18:58:00.687Z,100.00
2018-10-07T19:00:30.278Z,100.00
2018-10-07T19:03:00.161Z,100.00
2018-10-07T19:05:29.652Z,100.00
2018-10-07T19:07:59.320Z,100.00
2018-10-07T19:10:28.916Z,100.00
2018-10-07T19:12:58.591Z,100.00
2018-10-07T19:15:28.184Z,100.00
2018-10-07T19:17:57.983Z,100.00
2018-10-07T19:20:27.651Z,100.00
2018-10-07T19:22:57.380Z,100.00
2018-10-07T19:25:26.958Z,100.00
2018-10-07T19:27:56.674Z,100.00
2018-10-07T19:30:26.263Z,100.00
2018-10-07T19:32:56.099Z,100.00
2018-10-07T19:35:25.997Z,100.00
2018-10-07T19:37:55.625Z,100.00
2018-10-07T19:40:25.321Z,100.00
2018-10-07T19:42:55.227Z,100.00
2018-10-07T19:45:24.966Z,100.00
2018-10-07T19:47:54.676Z,100.00
2018-10-07T19:50:24.292Z,100.00
2018-10-07T19:52:54.232Z,100.00
2018-10-07T19:55:23.882Z,100.00
2018-10-07T19:57:53.607Z,100.00
2018-10-07T20:00:23.224Z,100.00
2018-10-07T20:02:53.091Z,100.00
2018-10-07T20:05:23.010Z,100.00
2018-10-07T20:07:52.786Z,100.00
2018-10-07T20:10:22.499Z,100.00
2018-10-07T20:12:52.515Z,100.00
2018-10-07T20:15:22.265Z,100.00
2018-10-07T20:17:52.044Z,100.00
2018-10-07T20:20:21.649Z,100.00
2018-10-07T20:22:51.473Z,100.00
2018-10-07T20:25:21.082Z,100.00
2018-10-07T20:27:50.918Z,100.00
2018-10-07T20:30:20.589Z,100.00
2018-10-07T20:32:50.204Z,100.00
2018-10-07T20:35:20.070Z,100.00
2018-10-07T20:37:49.757Z,100.00
2018-10-07T20:40:19.508Z,100.00
2018-10-07T20:42:49.143Z,100.00
2018-10-07T20:45:18.949Z,100.00
2018-10-07T20:47:48.537Z,100.00
2018-10-07T20:50:18.338Z,100.00
2018-10-07T20:52:47.995Z,100.00
2018-10-07T20:55:17.801Z,100.00
2018-10-07T20:57:47.468Z,100.00
2018-10-07T21:00:17.289Z,100.00
2018-10-07T21:02:46.954Z,100.00
2018-10-07T21:05:16.720Z,100.00
2018-10-07T21:07:46.339Z,100.00
2018-10-07T21:10:16.018Z,100.00
2018-10-07T21:12:45.669Z,100.00
2018-10-07T21:15:15.493Z,100.00
2018-10-07T21:17:45.118Z,100.00
2018-10-07T21:20:15.102Z,100.00
2018-10-07T21:22:44.743Z,100.00
2018-10-07T21:25:14.505Z,100.00
2018-10-07T21:27:44.103Z,100.00
2018-10-07T21:30:13.902Z,100.00
2018-10-07T21:32:43.524Z,100.00
2018-10-07T21:35:13.335Z,100.00
2018-10-07T21:37:42.964Z,100.00
2018-10-07T21:40:12.761Z,100.00
2018-10-07T21:42:42.426Z,100.00
2018-10-07T21:45:12.254Z,100.00
2018-10-07T21:47:41.919Z,100.00
2018-10-07T21:50:11.719Z,100.00
2018-10-07T21:52:41.434Z,100.00
2018-10-07T21:55:11.149Z,100.00
2018-10-07T21:57:40.763Z,100.00
2018-10-07T22:00:10.965Z,100.00
2018-10-07T22:02:40.580Z,100.00
2018-10-07T22:05:10.448Z,100.00
2018-10-07T22:07:40.118Z,100.00
2018-10-07T22:10:09.893Z,100.00
2018-10-07T22:12:39.622Z,100.00
2018-10-07T22:15:09.499Z,100.00
2018-10-07T22:17:39.116Z,100.00
2018-10-07T22:20:09.033Z,100.00
2018-10-07T22:22:38.613Z,100.00
2018-10-07T22:25:08.482Z,100.00
2018-10-07T22:27:38.182Z,100.00
2018-10-07T22:30:08.028Z,100.00
2018-10-07T22:32:37.834Z,100.00
2018-10-07T22:35:07.538Z,100.00
2018-10-07T22:37:37.358Z,100.00
2018-10-07T22:40:07.162Z,100.00
2018-10-07T22:42:36.958Z,100.00
2018-10-07T22:45:07.196Z,100.00
2018-10-07T22:47:37.011Z,100.00
2018-10-07T22:50:06.745Z,100.00
2018-10-07T22:52:36.617Z,100.00
2018-10-07T22:55:06.282Z,100.00
2018-10-07T22:57:36.099Z,100.00
2018-10-07T23:00:06.128Z,100.00
2018-10-07T23:02:35.986Z,100.00
2018-10-07T23:05:06.209Z,100.00
2018-10-07T23:07:36.234Z,100.00
2018-10-07T23:10:05.946Z,100.00
2018-10-07T23:12:35.800Z,100.00
2018-10-07T23:15:05.757Z,100.00
2018-10-07T23:17:35.515Z,100.00
2018-10-07T23:20:05.792Z,100.00
2018-10-07T23:22:35.546Z,100.00
2018-10-07T23:25:05.251Z,100.00
2018-10-07T23:27:35.148Z,100.00
2018-10-07T23:30:04.840Z,100.00
2018-10-07T23:32:34.626Z,100.00
2018-10-07T23:35:04.359Z,100.00
2018-10-07T23:37:34.176Z,100.00
2018-10-07T23:40:03.732Z,100.00
2018-10-07T23:42:33.524Z,100.00
2018-10-07T23:45:03.189Z,100.00
2018-10-07T23:47:32.958Z,100.00
2018-10-07T23:50:02.563Z,100.00
2018-10-07T23:52:32.341Z,100.00
2018-10-07T23:55:01.938Z,100.00
2018-10-07T23:57:31.953Z,100.00
